createdAt,value
2022-09-07T06:14:26.383Z,100.00
2022-09-07T06:24:26.452Z,100.00
2022-09-07T06:34:26.425Z,100.00
2022-09-07T06:44:26.412Z,100.00
2022-09-07T07:04:26.573Z,100.00
2022-09-07T07:14:28.122Z,100.00
2022-09-07T07:24:26.457Z,100.00
2022-09-07T07:34:26.758Z,100.00
2022-09-07T07:44:26.543Z,100.00
2022-09-07T07:54:26.463Z,100.00
2022-09-07T08:04:26.633Z,100.00
2022-09-07T08:14:26.633Z,100.00
2022-09-07T08:24:26.522Z,100.00
2022-09-07T08:34:26.601Z,100.00
2022-09-07T08:44:26.522Z,100.00
2022-09-07T08:54:26.650Z,100.00
2022-09-07T09:04:27.514Z,100.00
2022-09-07T09:14:26.713Z,100.00
2022-09-07T09:24:26.629Z,100.00
2022-09-07T09:34:29.482Z,100.00
2022-09-07T09:44:26.677Z,99.40
2022-09-07T09:54:26.518Z,98.19
2022-09-07T10:04:26.582Z,98.89
2022-09-07T10:14:26.657Z,95.49
2022-09-07T10:24:26.638Z,80.15
2022-09-07T10:34:26.850Z,77.75
2022-09-07T10:44:26.748Z,76.21
2022-09-07T10:54:30.710Z,74.94
2022-09-07T11:04:26.698Z,72.87
2022-09-07T11:14:26.685Z,68.89
2022-09-07T11:24:26.590Z,63.82
2022-09-07T11:34:26.679Z,67.61
2022-09-07T11:44:26.912Z,62.74
2022-09-07T11:54:26.815Z,60.85
2022-09-07T12:04:27.026Z,59.12
2022-09-07T12:14:27.149Z,55.11
2022-09-07T12:24:27.021Z,56.04
2022-09-07T12:34:27.173Z,56.85
2022-09-07T12:44:29.399Z,56.68
2022-09-07T12:54:27.298Z,58.17
2022-09-07T13:04:27.023Z,56.42
2022-09-07T13:14:27.213Z,55.65
2022-09-07T13:24:47.517Z,56.21
2022-09-07T13:34:27.180Z,56.14
2022-09-07T13:44:27.031Z,56.58
2022-09-07T13:54:27.095Z,55.54
2022-09-07T14:04:27.170Z,56.28
2022-09-07T14:14:27.117Z,55.03
2022-09-07T14:24:26.995Z,54.50
2022-09-07T14:34:27.183Z,52.97
2022-09-07T14:44:27.449Z,52.76
2022-09-07T14:54:27.249Z,59.55
2022-09-07T15:04:27.207Z,58.72
2022-09-07T15:14:27.257Z,58.69
2022-09-07T15:24:27.145Z,58.90
2022-09-07T15:34:27.320Z,56.87
2022-09-07T15:44:28.343Z,55.84
2022-09-07T15:54:27.348Z,55.60
2022-09-07T16:04:27.283Z,59.12
2022-09-07T16:14:27.412Z,57.37
2022-09-07T16:24:27.453Z,59.07
2022-09-07T16:34:27.423Z,61.33
2022-09-07T16:44:27.328Z,63.20
2022-09-07T16:54:27.652Z,61.86
2022-09-07T17:04:27.409Z,62.40
2022-09-07T17:14:27.474Z,66.53
2022-09-07T17:24:27.646Z,69.46
2022-09-07T17:34:27.641Z,70.51
2022-09-07T17:44:30.783Z,71.98
2022-09-07T17:54:27.510Z,76.42
2022-09-07T18:04:28.507Z,82.13
2022-09-07T18:14:27.501Z,88.73
2022-09-07T18:24:27.562Z,89.78
2022-09-07T18:34:27.627Z,95.79
2022-09-07T18:54:27.748Z,92.89
2022-09-07T19:05:49.674Z,95.07
2022-09-07T19:14:27.737Z,100.00
